EFPO

Pori Airport

Pori, Finland
METAR EFPO 181950Z AUTO 23005KT 9999 SCT012/// 02/01 Q1016
Observed Flight Rules
Dec-18 @ 19:50 UTC (42 minutes ago) Visual Flight Rules
Wind Visibility Clouds
230° at 5 knots 10,000+ meters
  • Scattered at 1,200' AGL
Temperatures Readings
Current 2°C / 36°F
Dewpoint 1°C / 34°F
Humidity 93%
Altimeter 30" Hg
Pressure 1016 hPa
Elevation 17
METAR EFPO 181950Z AUTO 23005KT 9999 SCT012/// 02/01 Q1016
Observed Flight Rules
Dec-18 @ 19:50 UTC
(42 minutes ago)
VFR
Wind Visibility
230° at 5 knots 10,000+ meters
Clouds
  • Scattered at 1,200' AGL
Temperature Dewpoint
2°C / 36°F 1°C / 34°F
Humidity Altimeter Pressure
93% 30" Hg 1016 hPa